Time;durP1;ratioP1;P1;durP2;ratioP2;P2;SDS_P1;SDS_P2;PMS_P1;PMS_P2;Temp;Humidity;BMP_temperature;BMP_pressure;BME280_temperature;BME280_humidity;BME280_pressure;Samples;Min_cycle;Max_cycle;Signal;HPM_P1;HPM_P2
2021/05/15 00:00:58;;;;;;;0.13;0.10;;;10.10;90.60;;;;;;5036552;28;20022;-71
2021/05/15 00:03:24;;;;;;;0.65;0.28;;;10.20;91.60;;;;;;5038476;28;20017;-71
2021/05/15 00:05:49;;;;;;;1.05;0.45;;;10.10;93.90;;;;;;5040344;28;20047;-71
2021/05/15 00:08:15;;;;;;;1.20;0.30;;;10.10;93.00;;;;;;5040303;28;20104;-71
2021/05/15 00:10:41;;;;;;;0.47;0.30;;;10.10;92.60;;;;;;5039876;28;20125;-72
2021/05/15 00:13:07;;;;;;;0.65;0.30;;;10.10;93.60;;;;;;5040001;28;20029;-71
2021/05/15 00:15:33;;;;;;;1.00;0.35;;;10.00;94.20;;;;;;5040128;28;20100;-71
2021/05/15 00:17:58;;;;;;;0.90;0.30;;;10.00;94.90;;;;;;5039823;28;20460;-71
2021/05/15 00:20:25;;;;;;;1.42;0.30;;;10.00;93.40;;;;;;5040086;28;20034;-71
2021/05/15 00:22:51;;;;;;;1.83;0.40;;;10.00;94.00;;;;;;5040089;28;20025;-71
2021/05/15 00:25:18;;;;;;;0.98;0.40;;;10.00;95.20;;;;;;5039973;28;20071;-71
2021/05/15 00:27:44;;;;;;;0.63;0.30;;;10.10;95.40;;;;;;5039522;28;20476;-72
2021/05/15 00:30:12;;;;;;;0.45;0.30;;;10.10;91.60;;;;;;5039485;28;20025;-72
2021/05/15 00:32:39;;;;;;;1.17;0.43;;;10.20;89.90;;;;;;5039579;28;20026;-71
2021/05/15 00:35:06;;;;;;;0.55;0.28;;;10.30;89.90;;;;;;5039731;28;20045;-71
2021/05/15 00:37:31;;;;;;;1.98;0.30;;;10.30;89.00;;;;;;5039404;28;20026;-71
2021/05/15 00:39:57;;;;;;;0.20;0.20;;;10.30;88.80;;;;;;5039731;28;20029;-71
2021/05/15 00:42:23;;;;;;;1.00;0.40;;;10.40;87.40;;;;;;5039405;28;20028;-71
2021/05/15 00:44:49;;;;;;;1.58;0.47;;;10.50;89.80;;;;;;5039654;28;20032;-71
2021/05/15 00:47:17;;;;;;;1.55;0.30;;;10.50;90.30;;;;;;5039636;28;20021;-70
2021/05/15 00:49:44;;;;;;;1.80;0.38;;;10.50;88.90;;;;;;5039472;28;20356;-71
2021/05/15 00:52:11;;;;;;;3.60;0.30;;;10.50;89.30;;;;;;5039538;28;20029;-71
2021/05/15 00:54:38;;;;;;;1.13;0.32;;;10.50;89.50;;;;;;5039405;28;20030;-71
2021/05/15 00:57:06;;;;;;;0.80;0.40;;;10.50;89.20;;;;;;5039102;28;20104;-71
2021/05/15 00:59:32;;;;;;;0.60;0.30;;;10.60;89.90;;;;;;5038891;28;20059;-71
2021/05/15 01:01:58;;;;;;;3.17;0.50;;;10.50;89.00;;;;;;5039398;28;20021;-70
2021/05/15 01:04:24;;;;;;;1.30;0.38;;;10.40;89.70;;;;;;5038915;28;20029;-71
2021/05/15 01:06:51;;;;;;;0.60;0.40;;;10.40;90.00;;;;;;5039248;28;20026;-71
2021/05/15 01:09:17;;;;;;;0.85;0.40;;;10.40;90.50;;;;;;5038894;28;20053;-71
2021/05/15 01:11:43;;;;;;;0.65;0.40;;;10.40;91.80;;;;;;5038777;28;20026;-71
2021/05/15 01:14:09;;;;;;;5.15;0.60;;;10.40;91.20;;;;;;5038536;28;20037;-70
2021/05/15 01:16:35;;;;;;;1.45;0.52;;;10.40;92.00;;;;;;5039050;28;20025;-71
2021/05/15 01:19:03;;;;;;;2.45;0.60;;;10.30;91.10;;;;;;5038685;28;20414;-71
2021/05/15 01:21:28;;;;;;;2.25;0.30;;;10.30;92.10;;;;;;5038660;28;20029;-71
2021/05/15 01:23:54;;;;;;;3.42;0.80;;;10.10;92.10;;;;;;5038908;28;20034;-70
2021/05/15 01:26:25;;;;;;;4.35;0.40;;;10.10;93.80;;;;;;5038707;28;20199;-71
2021/05/15 01:28:59;;;;;;;3.67;0.43;;;10.00;93.20;;;;;;5038857;28;20388;-71
2021/05/15 01:31:26;;;;;;;2.22;0.40;;;9.90;92.90;;;;;;5038393;28;20083;-72
2021/05/15 01:33:53;;;;;;;0.30;0.30;;;9.90;92.80;;;;;;5038701;28;20037;-71
2021/05/15 01:36:19;;;;;;;3.35;0.50;;;9.80;92.30;;;;;;5038375;28;20410;-71
2021/05/15 01:38:46;;;;;;;1.48;0.50;;;9.80;92.10;;;;;;5038668;28;20045;-71
2021/05/15 01:41:14;;;;;;;3.30;0.43;;;9.90;93.10;;;;;;5038226;28;20414;-72
2021/05/15 01:43:40;;;;;;;1.20;0.52;;;9.90;92.80;;;;;;5038532;28;20087;-72
2021/05/15 01:46:07;;;;;;;0.60;0.30;;;9.90;92.20;;;;;;5038176;28;20021;-73
2021/05/15 01:48:33;;;;;;;1.50;0.30;;;9.80;92.20;;;;;;5038454;28;20084;-72
2021/05/15 01:51:08;;;;;;;2.40;0.40;;;9.90;92.80;;;;;;5038327;28;20017;-72
2021/05/15 01:53:36;;;;;;;3.13;0.40;;;9.90;94.80;;;;;;5038101;28;20033;-72
2021/05/15 01:56:04;;;;;;;0.30;0.20;;;9.80;94.30;;;;;;5037806;28;20056;-71
2021/05/15 01:58:30;;;;;;;0.95;0.22;;;9.80;94.40;;;;;;5038248;28;20025;-72
2021/05/15 02:00:56;;;;;;;0.30;0.20;;;9.80;95.40;;;;;;5038164;28;20429;-72
2021/05/15 02:03:22;;;;;;;1.55;0.20;;;9.80;95.50;;;;;;5038213;28;20083;-72
2021/05/15 02:05:49;;;;;;;1.98;0.20;;;9.80;94.00;;;;;;5037786;28;20022;-72
2021/05/15 02:08:16;;;;;;;1.35;0.40;;;9.90;94.30;;;;;;5037767;28;20025;-72
2021/05/15 02:10:42;;;;;;;0.70;0.30;;;9.90;94.50;;;;;;5037606;28;20418;-72
2021/05/15 02:13:08;;;;;;;2.00;0.40;;;10.00;93.60;;;;;;5037660;28;20025;-72
2021/05/15 02:15:35;;;;;;;0.40;0.30;;;10.00;93.10;;;;;;5037602;28;20426;-73
2021/05/15 02:18:01;;;;;;;1.45;0.35;;;10.00;92.00;;;;;;5037596;28;20037;-72
2021/05/15 02:20:27;;;;;;;0.73;0.35;;;10.00;92.10;;;;;;5037767;28;20051;-73
2021/05/15 02:22:53;;;;;;;0.98;0.50;;;10.10;92.30;;;;;;5037537;28;20100;-72
2021/05/15 02:25:19;;;;;;;2.58;0.50;;;10.10;93.50;;;;;;5037171;28;20036;-72
2021/05/15 02:27:45;;;;;;;0.50;0.30;;;10.00;94.40;;;;;;5037301;28;20152;-72
2021/05/15 02:30:11;;;;;;;2.15;0.30;;;10.00;94.50;;;;;;5037603;28;20030;-72
2021/05/15 02:32:37;;;;;;;1.75;0.30;;;9.90;93.00;;;;;;5037364;28;20100;-72
2021/05/15 02:35:03;;;;;;;0.68;0.22;;;9.90;93.60;;;;;;5037589;28;20041;-73
2021/05/15 02:37:29;;;;;;;0.70;0.40;;;9.90;92.00;;;;;;5037261;28;20025;-72
2021/05/15 02:39:55;;;;;;;0.73;0.20;;;9.80;92.80;;;;;;5037254;28;20440;-72
2021/05/15 02:42:20;;;;;;;0.90;0.28;;;9.80;94.40;;;;;;5037503;28;20072;-72
2021/05/15 02:44:46;;;;;;;0.50;0.30;;;9.80;94.50;;;;;;5037431;28;20030;-72
2021/05/15 02:47:12;;;;;;;2.10;0.30;;;9.80;94.70;;;;;;5037094;28;20380;-72
2021/05/15 02:49:38;;;;;;;1.02;0.30;;;9.70;95.00;;;;;;5037244;28;20100;-72
2021/05/15 02:52:03;;;;;;;1.83;0.30;;;9.60;94.30;;;;;;5037361;28;20402;-72
2021/05/15 02:54:29;;;;;;;0.95;0.40;;;9.60;94.60;;;;;;5036922;28;20021;-73
2021/05/15 02:56:55;;;;;;;0.38;0.25;;;9.50;94.80;;;;;;5036975;28;20025;-72
2021/05/15 02:59:21;;;;;;;0.75;0.38;;;9.50;94.90;;;;;;5037197;28;20110;-72
2021/05/15 03:01:46;;;;;;;2.50;0.20;;;9.40;94.50;;;;;;5037184;28;20051;-73
2021/05/15 03:04:12;;;;;;;0.55;0.30;;;9.30;94.80;;;;;;5036804;28;20026;-72
2021/05/15 03:06:38;;;;;;;1.65;0.38;;;9.20;94.80;;;;;;5037126;28;20029;-73
2021/05/15 03:09:04;;;;;;;2.10;0.40;;;9.10;95.40;;;;;;5037100;28;20048;-73
2021/05/15 03:11:29;;;;;;;1.45;0.40;;;9.00;96.00;;;;;;5036972;28;20321;-72
2021/05/15 03:13:55;;;;;;;0.95;0.50;;;8.90;96.90;;;;;;5037004;28;20040;-72
2021/05/15 03:16:21;;;;;;;0.70;0.50;;;8.90;96.60;;;;;;5036980;28;20029;-73
2021/05/15 03:18:46;;;;;;;1.30;0.50;;;8.90;96.90;;;;;;5036953;28;20025;-73
2021/05/15 03:21:12;;;;;;;1.13;0.55;;;8.90;97.20;;;;;;5036930;28;20026;-72
2021/05/15 03:23:38;;;;;;;3.75;0.65;;;8.90;97.00;;;;;;5036621;28;20150;-72
2021/05/15 03:26:03;;;;;;;1.23;0.43;;;8.90;96.90;;;;;;5036208;28;20054;-73
2021/05/15 03:28:30;;;;;;;2.58;0.47;;;8.90;96.50;;;;;;5036850;28;20057;-73
2021/05/15 03:30:56;;;;;;;1.50;0.50;;;8.90;97.00;;;;;;5036757;28;20036;-73
2021/05/15 03:33:21;;;;;;;0.73;0.40;;;8.90;97.10;;;;;;5036539;28;20018;-72
2021/05/15 03:35:47;;;;;;;1.00;0.40;;;9.00;96.60;;;;;;5036773;28;20022;-72
2021/05/15 03:38:13;;;;;;;0.77;0.50;;;9.20;96.50;;;;;;5038518;28;20322;-72
2021/05/15 03:40:38;;;;;;;0.50;0.40;;;9.30;95.70;;;;;;5040832;28;20424;-73
2021/05/15 03:43:04;;;;;;;0.98;0.70;;;9.40;95.00;;;;;;5040879;28;20095;-73
2021/05/15 03:45:30;;;;;;;4.55;0.40;;;9.60;94.60;;;;;;5040696;28;20025;-72
2021/05/15 03:47:56;;;;;;;1.42;0.43;;;9.70;93.60;;;;;;5040772;28;20022;-72
2021/05/15 03:50:22;;;;;;;1.42;0.40;;;9.80;92.80;;;;;;5040577;28;20381;-72
2021/05/15 03:52:50;;;;;;;1.45;0.55;;;9.90;93.20;;;;;;5040344;28;20422;-72
2021/05/15 03:55:17;;;;;;;1.70;0.47;;;10.00;92.40;;;;;;5040586;28;20359;-73
2021/05/15 03:57:43;;;;;;;2.20;0.60;;;10.00;92.20;;;;;;5040188;28;20026;-72
2021/05/15 04:00:10;;;;;;;2.40;0.60;;;10.10;92.20;;;;;;5040469;28;20030;-72
2021/05/15 04:02:37;;;;;;;1.52;0.50;;;10.10;91.60;;;;;;5040482;28;20075;-73
2021/05/15 04:05:04;;;;;;;0.95;0.47;;;10.20;91.50;;;;;;5040044;28;20029;-73
2021/05/15 04:07:29;;;;;;;0.73;0.35;;;10.30;91.30;;;;;;5040080;28;20032;-72
2021/05/15 04:09:55;;;;;;;1.52;0.50;;;10.30;91.10;;;;;;5040258;28;20025;-72
2021/05/15 04:12:23;;;;;;;1.98;0.60;;;10.40;90.10;;;;;;5040286;28;20061;-72
2021/05/15 04:17:21;;;;;;;0.82;0.40;;;10.40;89.90;;;;;;5039892;28;20028;-72
2021/05/15 04:19:48;;;;;;;0.80;0.40;;;10.40;89.70;;;;;;5040156;28;20040;-73
2021/05/15 04:22:14;;;;;;;0.80;0.22;;;10.50;90.30;;;;;;5040213;28;20044;-72
2021/05/15 04:24:39;;;;;;;0.50;0.30;;;10.50;89.90;;;;;;5039774;28;20033;-72
2021/05/15 04:27:05;;;;;;;0.35;0.20;;;10.60;87.80;;;;;;5039506;28;20076;-72
2021/05/15 04:29:32;;;;;;;0.57;0.30;;;10.70;88.40;;;;;;5039923;28;20325;-72
2021/05/15 04:31:58;;;;;;;2.40;0.35;;;10.70;88.60;;;;;;5039884;28;20310;-72
2021/05/15 04:34:25;;;;;;;0.75;0.40;;;10.70;88.10;;;;;;5039490;28;20022;-72
2021/05/15 04:36:51;;;;;;;0.85;0.40;;;10.80;87.50;;;;;;5039625;28;20025;-72
2021/05/15 04:39:17;;;;;;;0.93;0.40;;;10.80;87.60;;;;;;5039801;28;20035;-73
2021/05/15 04:41:43;;;;;;;0.70;0.30;;;10.80;86.60;;;;;;5039457;28;20029;-72
2021/05/15 04:44:09;;;;;;;0.90;0.40;;;10.80;86.50;;;;;;5039633;28;20402;-72
2021/05/15 04:46:35;;;;;;;0.40;0.32;;;10.80;85.50;;;;;;5039696;28;20029;-72
2021/05/15 04:49:00;;;;;;;0.45;0.35;;;10.90;86.90;;;;;;5039058;28;20030;-72
2021/05/15 04:51:26;;;;;;;0.30;0.20;;;11.00;86.40;;;;;;5039147;28;20021;-72
2021/05/15 04:53:52;;;;;;;0.75;0.50;;;11.00;86.40;;;;;;5039509;28;20096;-72
2021/05/15 04:56:17;;;;;;;1.40;0.30;;;11.00;86.20;;;;;;5039165;28;20377;-72
2021/05/15 04:58:44;;;;;;;0.60;0.40;;;11.00;86.30;;;;;;5039154;28;20303;-72
2021/05/15 05:01:10;;;;;;;0.90;0.40;;;11.00;85.90;;;;;;5039339;28;20021;-72
2021/05/15 05:03:35;;;;;;;1.55;0.30;;;11.10;85.30;;;;;;5039069;28;20425;-72
2021/05/15 05:06:01;;;;;;;0.85;0.50;;;11.20;86.10;;;;;;5039239;28;20083;-72
2021/05/15 05:08:27;;;;;;;3.80;0.30;;;11.30;84.50;;;;;;5039222;28;20041;-72
2021/05/15 05:10:54;;;;;;;1.05;0.52;;;11.40;85.10;;;;;;5039059;28;20071;-72
2021/05/15 05:13:20;;;;;;;0.80;0.43;;;11.50;85.60;;;;;;5038932;28;20465;-72
2021/05/15 05:15:47;;;;;;;1.95;0.60;;;11.60;85.70;;;;;;5038721;28;20057;-72
2021/05/15 05:18:13;;;;;;;2.50;0.93;;;11.60;85.30;;;;;;5038769;28;20076;-72
2021/05/15 05:20:39;;;;;;;2.30;0.70;;;11.50;86.00;;;;;;5038667;28;20112;-72
2021/05/15 05:23:05;;;;;;;1.52;0.60;;;11.30;86.70;;;;;;5039008;28;20104;-72
2021/05/15 05:25:31;;;;;;;3.63;0.82;;;11.30;88.20;;;;;;5038762;28;20072;-72
2021/05/15 05:27:57;;;;;;;1.63;0.68;;;11.20;86.80;;;;;;5038597;28;20050;-72
2021/05/15 05:30:23;;;;;;;0.90;0.60;;;11.10;88.10;;;;;;5038684;28;20033;-72
2021/05/15 05:32:50;;;;;;;2.45;0.70;;;11.00;87.90;;;;;;5038519;28;20160;-72
2021/05/15 05:35:17;;;;;;;1.10;0.50;;;11.10;88.00;;;;;;5038704;28;20280;-72
2021/05/15 05:37:43;;;;;;;1.30;0.70;;;11.20;88.70;;;;;;5038384;28;20030;-72
2021/05/15 05:40:11;;;;;;;0.57;0.40;;;11.30;89.00;;;;;;5038366;28;20338;-71
2021/05/15 05:42:40;;;;;;;1.23;0.60;;;11.30;88.30;;;;;;5038619;28;20115;-72
2021/05/15 05:45:08;;;;;;;2.35;0.45;;;11.40;87.50;;;;;;5038203;28;20025;-72
2021/05/15 05:47:35;;;;;;;2.20;0.57;;;11.50;87.80;;;;;;5038160;28;20025;-72
2021/05/15 05:50:01;;;;;;;0.52;0.30;;;11.50;88.50;;;;;;5038352;28;20033;-72
2021/05/15 05:52:26;;;;;;;1.33;0.63;;;11.60;87.30;;;;;;5038462;28;20029;-72
2021/05/15 05:54:52;;;;;;;2.22;0.68;;;11.70;87.00;;;;;;5037953;28;20432;-72
2021/05/15 05:57:18;;;;;;;0.85;0.50;;;11.70;87.70;;;;;;5038363;28;20326;-72
2021/05/15 05:59:44;;;;;;;0.73;0.30;;;11.80;86.90;;;;;;5037558;28;20032;-72
2021/05/15 06:02:11;;;;;;;1.08;0.40;;;11.90;86.70;;;;;;5037443;28;20064;-72
2021/05/15 06:04:37;;;;;;;5.75;0.70;;;12.10;87.40;;;;;;5037780;28;20049;-72
2021/05/15 06:07:04;;;;;;;0.80;0.40;;;12.30;87.40;;;;;;5038163;28;20105;-72
2021/05/15 06:09:30;;;;;;;1.70;0.40;;;12.40;87.40;;;;;;5037745;28;20026;-72
2021/05/15 06:11:55;;;;;;;0.50;0.35;;;12.60;89.60;;;;;;5038014;28;20029;-72
2021/05/15 06:14:21;;;;;;;0.40;0.28;;;12.60;86.90;;;;;;5037920;28;20290;-72
2021/05/15 06:16:47;;;;;;;0.70;0.40;;;12.70;88.90;;;;;;5037719;28;20318;-72
2021/05/15 06:19:13;;;;;;;0.75;0.30;;;12.80;86.80;;;;;;5037909;28;20032;-70
2021/05/15 06:21:38;;;;;;;0.50;0.20;;;13.00;85.60;;;;;;5037822;28;20030;-71
2021/05/15 06:24:04;;;;;;;1.08;0.30;;;13.10;85.80;;;;;;5037812;28;20433;-72
2021/05/15 06:26:30;;;;;;;1.40;0.45;;;13.20;88.70;;;;;;5037207;28;20142;-72
2021/05/15 06:28:56;;;;;;;0.80;0.32;;;13.30;87.40;;;;;;5037792;28;20441;-72
2021/05/15 06:31:22;;;;;;;1.85;0.40;;;13.40;87.00;;;;;;5037586;28;20407;-72
2021/05/15 06:33:47;;;;;;;1.40;0.40;;;13.50;84.80;;;;;;5037635;28;20021;-72
2021/05/15 06:36:13;;;;;;;1.48;0.55;;;13.50;87.10;;;;;;5037648;28;20025;-72
2021/05/15 06:38:41;;;;;;;0.90;0.30;;;13.40;86.70;;;;;;5037298;28;20310;-72
2021/05/15 06:41:08;;;;;;;2.00;0.70;;;13.40;88.60;;;;;;5037509;28;20313;-72
2021/05/15 06:43:33;;;;;;;3.08;0.65;;;13.40;87.20;;;;;;5037205;28;20422;-72
2021/05/15 06:46:00;;;;;;;1.23;0.50;;;13.40;87.10;;;;;;5037036;28;20025;-72
2021/05/15 06:48:25;;;;;;;1.77;0.52;;;13.40;88.80;;;;;;5037087;28;20083;-72
2021/05/15 06:50:51;;;;;;;1.02;0.60;;;13.40;86.60;;;;;;5036915;28;20025;-72
2021/05/15 06:53:17;;;;;;;1.65;0.50;;;13.40;87.40;;;;;;5037024;28;20025;-72
2021/05/15 06:55:43;;;;;;;2.88;0.50;;;13.50;84.50;;;;;;5037205;28;20030;-72
2021/05/15 06:58:08;;;;;;;1.38;0.60;;;13.50;84.70;;;;;;5036925;28;20034;-72
2021/05/15 07:00:34;;;;;;;1.25;0.60;;;13.60;87.70;;;;;;5037197;28;20074;-72
2021/05/15 07:03:00;;;;;;;1.80;0.50;;;13.80;87.50;;;;;;5036983;28;20342;-73
2021/05/15 07:05:26;;;;;;;1.00;0.70;;;13.90;86.80;;;;;;5037101;28;20036;-72
2021/05/15 07:07:52;;;;;;;1.00;0.57;;;14.00;87.80;;;;;;5036822;28;20418;-72
2021/05/15 07:10:17;;;;;;;1.85;0.90;;;14.00;86.10;;;;;;5036975;28;20029;-72
2021/05/15 07:12:43;;;;;;;1.40;0.70;;;14.00;84.60;;;;;;5036845;28;20024;-73
2021/05/15 07:15:10;;;;;;;1.98;0.80;;;14.10;85.80;;;;;;5037021;28;20317;-72
2021/05/15 07:17:35;;;;;;;1.58;0.85;;;14.20;85.60;;;;;;5036991;28;20021;-72
2021/05/15 07:20:03;;;;;;;2.50;1.00;;;14.30;84.30;;;;;;5036940;28;20128;-72
2021/05/15 07:22:30;;;;;;;1.63;0.95;;;14.40;84.20;;;;;;5036957;28;20029;-72
2021/05/15 07:24:58;;;;;;;3.15;0.60;;;14.60;84.80;;;;;;5036629;28;20429;-72
2021/05/15 07:27:28;;;;;;;1.25;0.52;;;14.80;83.60;;;;;;5036450;28;20061;-72
2021/05/15 07:29:54;;;;;;;0.80;0.60;;;15.00;83.00;;;;;;5036426;28;20025;-72
2021/05/15 07:32:21;;;;;;;1.45;0.60;;;15.10;84.00;;;;;;5036847;28;20080;-71
2021/05/15 07:34:47;;;;;;;1.80;0.57;;;15.20;84.40;;;;;;5036744;28;20045;-71
2021/05/15 07:37:14;;;;;;;2.30;0.52;;;15.20;80.30;;;;;;5036732;28;20037;-71
2021/05/15 07:39:41;;;;;;;1.50;0.82;;;15.20;82.20;;;;;;5036785;28;20356;-71
2021/05/15 07:42:07;;;;;;;2.10;1.10;;;15.10;83.90;;;;;;5036782;28;20030;-71
2021/05/15 07:44:33;;;;;;;1.42;0.98;;;14.90;82.20;;;;;;5036659;28;20302;-71
2021/05/15 07:46:59;;;;;;;2.88;1.13;;;14.70;81.90;;;;;;5036728;28;20421;-71
2021/05/15 07:49:25;;;;;;;2.90;0.90;;;14.50;83.90;;;;;;5036668;28;20353;-71
2021/05/15 07:51:53;;;;;;;1.45;0.60;;;14.40;83.90;;;;;;5036625;28;20303;-71
2021/05/15 07:54:19;;;;;;;1.92;0.80;;;14.20;82.80;;;;;;5036235;28;20036;-71
2021/05/15 07:56:45;;;;;;;1.50;0.80;;;14.30;85.50;;;;;;5036317;28;20029;-71
2021/05/15 07:59:11;;;;;;;1.17;0.80;;;14.20;83.10;;;;;;5036554;28;20069;-71
2021/05/15 08:01:36;;;;;;;2.03;0.60;;;14.20;82.60;;;;;;5036575;28;20083;-71
2021/05/15 08:04:02;;;;;;;2.30;0.73;;;14.30;82.80;;;;;;5036496;28;20033;-71
2021/05/15 08:06:28;;;;;;;0.95;0.57;;;14.40;83.70;;;;;;5036522;28;20440;-71
2021/05/15 08:08:54;;;;;;;1.70;0.70;;;14.40;82.50;;;;;;5036260;28;20030;-70
2021/05/15 08:11:20;;;;;;;1.85;0.80;;;14.60;84.00;;;;;;5036451;28;20029;-71
2021/05/15 08:13:46;;;;;;;1.63;0.60;;;14.90;82.00;;;;;;5036487;28;20295;-71
2021/05/15 08:16:13;;;;;;;1.90;0.70;;;15.10;81.70;;;;;;5036483;28;20089;-71
2021/05/15 08:18:40;;;;;;;2.35;0.77;;;15.20;80.90;;;;;;5036144;28;20414;-71
2021/05/15 08:21:06;;;;;;;3.38;0.70;;;15.40;80.40;;;;;;5036080;28;20060;-71
2021/05/15 08:23:35;;;;;;;1.98;0.60;;;15.50;79.70;;;;;;5036657;28;20030;-71
2021/05/15 08:26:05;;;;;;;1.15;0.52;;;16.70;78.60;;;;;;5039810;28;20049;-70
2021/05/15 08:28:32;;;;;;;0.82;0.52;;;18.00;74.80;;;;;;5040038;28;20038;-71
2021/05/15 08:30:58;;;;;;;3.17;0.68;;;19.40;70.70;;;;;;5039879;28;20025;-71
2021/05/15 08:33:24;;;;;;;0.93;0.47;;;20.10;71.10;;;;;;5039976;28;20045;-71
2021/05/15 08:35:50;;;;;;;2.22;0.60;;;19.90;65.10;;;;;;5039511;28;20025;-71
2021/05/15 08:38:16;;;;;;;1.50;0.50;;;19.40;65.90;;;;;;5039533;28;20426;-71
2021/05/15 08:40:42;;;;;;;1.35;0.60;;;18.60;72.40;;;;;;5039460;28;20104;-71
2021/05/15 08:43:09;;;;;;;2.33;1.35;;;17.80;76.70;;;;;;5039503;28;20025;-71
2021/05/15 08:45:35;;;;;;;2.88;0.70;;;17.20;76.20;;;;;;5039651;28;20103;-71
2021/05/15 08:48:02;;;;;;;3.38;1.00;;;16.70;74.30;;;;;;5039345;28;20079;-71
2021/05/15 08:50:30;;;;;;;1.40;0.60;;;16.30;78.20;;;;;;5039551;28;20326;-71
2021/05/15 08:52:58;;;;;;;3.13;0.90;;;17.00;76.40;;;;;;5039625;28;20045;-71
2021/05/15 08:55:27;;;;;;;3.30;1.00;;;18.60;70.60;;;;;;5039206;28;20029;-71
2021/05/15 08:57:54;;;;;;;7.05;0.90;;;19.90;66.70;;;;;;5039485;28;20046;-71
2021/05/15 09:00:23;;;;;;;3.05;0.90;;;20.70;69.90;;;;;;5039052;28;20025;-71
2021/05/15 09:02:56;;;;;;;7.50;0.80;;;21.90;68.10;;;;;;5039133;28;20528;-71
2021/05/15 09:05:22;;;;;;;2.83;0.80;;;22.00;66.70;;;;;;5039272;28;20057;-71
2021/05/15 09:07:51;;;;;;;5.07;1.00;;;20.90;67.40;;;;;;5039279;28;20021;-71
2021/05/15 09:10:22;;;;;;;3.10;1.00;;;19.80;68.90;;;;;;5038830;28;20038;-71
2021/05/15 09:12:48;;;;;;;2.17;0.93;;;18.90;73.60;;;;;;5039214;28;20033;-71
2021/05/15 09:15:15;;;;;;;1.05;0.63;;;18.30;73.00;;;;;;5039087;28;20072;-71
2021/05/15 09:17:45;;;;;;;2.10;0.85;;;17.80;77.00;;;;;;5038826;28;20101;-71
2021/05/15 09:20:22;;;;;;;1.80;0.80;;;17.60;76.50;;;;;;5039068;28;20038;-71
2021/05/15 09:22:48;;;;;;;2.28;0.68;;;17.70;75.90;;;;;;5038708;28;20030;-71
2021/05/15 09:25:14;;;;;;;3.42;0.65;;;18.70;74.40;;;;;;5038961;28;20052;-71
2021/05/15 09:27:40;;;;;;;1.58;0.70;;;18.80;72.80;;;;;;5038489;28;20054;-70
2021/05/15 09:30:06;;;;;;;1.40;0.73;;;18.40;70.70;;;;;;5038490;28;20083;-70
2021/05/15 09:32:34;;;;;;;3.00;0.80;;;18.00;70.90;;;;;;5038507;28;20368;-71
2021/05/15 09:35:02;;;;;;;2.15;0.90;;;17.50;75.60;;;;;;5038359;28;20069;-71
2021/05/15 09:37:30;;;;;;;2.78;0.90;;;16.90;74.00;;;;;;5038686;28;20028;-71
2021/05/15 09:39:56;;;;;;;2.00;0.90;;;16.60;77.00;;;;;;5038671;28;20025;-71
2021/05/15 09:42:21;;;;;;;4.82;1.00;;;16.20;76.20;;;;;;5038355;28;20063;-71
2021/05/15 09:44:47;;;;;;;2.72;1.00;;;16.00;79.50;;;;;;5038545;28;20021;-71
2021/05/15 09:47:18;;;;;;;1.60;0.70;;;15.90;77.70;;;;;;5038585;28;20059;-71
2021/05/15 09:49:43;;;;;;;2.85;1.05;;;15.90;81.50;;;;;;5038188;28;20052;-71
2021/05/15 09:52:10;;;;;;;5.35;1.30;;;15.90;80.50;;;;;;5038435;28;20057;-71
2021/05/15 09:54:44;;;;;;;3.03;0.98;;;15.70;81.10;;;;;;5038339;28;20064;-71
2021/05/15 09:57:13;;;;;;;4.32;0.98;;;15.50;81.60;;;;;;5038115;28;20493;-71
2021/05/15 09:59:39;;;;;;;3.70;1.50;;;15.20;82.90;;;;;;5038321;28;20033;-71
2021/05/15 10:02:10;;;;;;;3.40;1.27;;;15.10;82.60;;;;;;5038010;28;20033;-71
2021/05/15 10:04:36;;;;;;;2.65;1.25;;;15.00;83.70;;;;;;5038222;28;20049;-71
2021/05/15 10:07:02;;;;;;;4.20;1.10;;;15.00;84.50;;;;;;5038199;28;20032;-71
2021/05/15 10:09:33;;;;;;;2.83;1.27;;;15.10;82.60;;;;;;5038105;28;20402;-71
2021/05/15 10:12:01;;;;;;;5.45;1.60;;;15.10;83.30;;;;;;5038071;28;20033;-71
2021/05/15 10:14:27;;;;;;;4.60;1.42;;;15.10;84.40;;;;;;5037321;28;20361;-71
2021/05/15 10:16:54;;;;;;;5.60;1.20;;;15.10;81.90;;;;;;5029848;28;20021;-71
2021/05/15 10:19:20;;;;;;;4.45;1.45;;;15.20;81.70;;;;;;5022111;28;20319;-71
2021/05/15 10:21:46;;;;;;;3.08;1.02;;;15.30;81.20;;;;;;5018170;28;20101;-71
2021/05/15 10:24:21;;;;;;;4.45;0.95;;;15.30;84.30;;;;;;5017666;28;20030;-71
2021/05/15 10:27:03;;;;;;;3.75;1.50;;;15.30;84.50;;;;;;5017694;28;20107;-71
2021/05/15 10:29:42;;;;;;;5.07;1.10;;;15.30;83.80;;;;;;5018011;28;20037;-71
2021/05/15 10:32:31;;;;;;;2.47;0.90;;;15.50;81.50;;;;;;5017597;28;20025;-71
2021/05/15 10:35:05;;;;;;;2.85;1.00;;;15.50;80.80;;;;;;5017590;28;20034;-71
2021/05/15 10:37:39;;;;;;;3.17;1.00;;;15.40;82.00;;;;;;5017843;28;20054;-71
2021/05/15 10:40:15;;;;;;;2.83;1.10;;;15.50;84.50;;;;;;5017790;28;20291;-71
2021/05/15 10:42:40;;;;;;;;;;;15.40;80.60;;;;;;5017923;28;20038;-71
2021/05/15 10:45:08;;;;;;;1.55;0.90;;;15.30;78.70;;;;;;5017724;28;19952;-71
2021/05/15 10:47:41;;;;;;;4.90;1.02;;;15.10;81.00;;;;;;5016959;28;20018;-71
2021/05/15 10:50:18;;;;;;;3.95;1.13;;;15.00;84.10;;;;;;5017239;28;20026;-71
2021/05/15 10:52:51;;;;;;;2.88;1.17;;;14.80;87.30;;;;;;5017234;28;20030;-70
2021/05/15 10:55:32;;;;;;;3.70;1.30;;;14.70;84.00;;;;;;5017557;28;20034;-70
2021/05/15 10:58:17;;;;;;;1.83;1.10;;;14.60;85.20;;;;;;5017212;28;20029;-71
2021/05/15 11:00:43;;;;;;;3.92;1.40;;;14.50;85.60;;;;;;5017084;28;20037;-70
2021/05/15 11:03:09;;;;;;;2.08;1.10;;;14.60;87.00;;;;;;5017182;28;20103;-71
2021/05/15 11:05:47;;;;;;;3.88;1.20;;;14.60;86.30;;;;;;5017073;28;20105;-72
2021/05/15 11:08:26;;;;;;;2.40;1.08;;;14.60;87.90;;;;;;5017349;28;20366;-71
2021/05/15 11:10:53;;;;;;;3.63;1.73;;;14.50;87.20;;;;;;5017340;28;20053;-72
2021/05/15 11:13:18;;;;;;;1.90;1.10;;;14.40;88.90;;;;;;5017358;28;20322;-70
2021/05/15 11:15:44;;;;;;;2.25;1.15;;;14.30;90.00;;;;;;5017205;28;20026;-71
2021/05/15 11:18:10;;;;;;;3.78;1.20;;;14.20;91.00;;;;;;5016999;28;20357;-70
2021/05/15 11:20:43;;;;;;;5.57;1.50;;;14.10;91.90;;;;;;5017208;28;20026;-71
2021/05/15 11:23:14;;;;;;;3.00;1.20;;;14.00;92.10;;;;;;5016930;28;20026;-71
2021/05/15 11:25:56;;;;;;;1.75;0.80;;;13.80;92.30;;;;;;5016930;28;20025;-70
2021/05/15 11:28:24;;;;;;;5.43;1.30;;;13.70;92.10;;;;;;5017170;28;20084;-72
2021/05/15 11:30:50;;;;;;;4.10;1.33;;;13.60;92.80;;;;;;5016737;28;20022;-71
2021/05/15 11:33:20;;;;;;;2.95;1.00;;;13.50;93.80;;;;;;5016874;28;20048;-72
2021/05/15 11:35:50;;;;;;;3.13;1.35;;;13.50;93.60;;;;;;5016729;28;20026;-72
2021/05/15 11:38:20;;;;;;;3.75;1.10;;;13.60;94.10;;;;;;5017062;28;20400;-72
2021/05/15 11:40:46;;;;;;;4.28;1.20;;;13.70;93.50;;;;;;5017046;28;20041;-72
2021/05/15 11:43:24;;;;;;;2.70;1.00;;;13.90;92.80;;;;;;5017060;28;20407;-72
2021/05/15 11:45:50;;;;;;;1.45;0.77;;;14.10;92.60;;;;;;5016607;28;20338;-72
2021/05/15 11:48:22;;;;;;;1.58;0.95;;;14.40;94.10;;;;;;5016710;28;20022;-73
2021/05/15 11:51:03;;;;;;;4.50;1.10;;;14.60;91.00;;;;;;5016579;28;20057;-73
2021/05/15 11:53:31;;;;;;;4.70;0.90;;;15.00;87.00;;;;;;5016962;28;20322;-71
2021/05/15 11:55:57;;;;;;;2.65;0.82;;;15.50;86.40;;;;;;5016891;28;20030;-72
2021/05/15 11:58:22;;;;;;;2.13;0.80;;;16.10;85.60;;;;;;5017226;28;20022;-72
2021/05/15 12:00:48;;;;;;;3.03;1.00;;;16.30;81.20;;;;;;5020414;28;20033;-71
2021/05/15 12:03:22;;;;;;;6.15;2.20;;;16.50;83.80;;;;;;5020469;28;20032;-71
2021/05/15 12:05:49;;;;;;;2.33;1.50;;;16.70;81.50;;;;;;5020282;28;20038;-71
2021/05/15 12:08:16;;;;;;;1.55;1.20;;;17.00;79.40;;;;;;5020311;28;20423;-71
2021/05/15 12:10:42;;;;;;;2.83;1.30;;;17.10;79.10;;;;;;5020215;28;20441;-71
2021/05/15 12:13:09;;;;;;;3.50;1.15;;;17.30;85.30;;;;;;5020607;28;20029;-71
2021/05/15 12:15:40;;;;;;;1.40;1.00;;;17.30;82.10;;;;;;5020161;28;20030;-71
2021/05/15 12:18:06;;;;;;;4.15;1.38;;;17.30;82.40;;;;;;5020444;28;20362;-71
2021/05/15 12:20:42;;;;;;;4.50;1.23;;;17.00;76.40;;;;;;5020397;28;20117;-71
2021/05/15 12:23:20;;;;;;;2.38;1.02;;;16.80;80.60;;;;;;5020394;28;20033;-71
2021/05/15 12:25:55;;;;;;;3.20;1.20;;;16.90;83.20;;;;;;5020110;28;20030;-71
2021/05/15 12:28:23;;;;;;;;;;;17.00;87.40;;;;;;5020702;28;20045;-71
2021/05/15 12:30:49;;;;;;;2.40;1.30;;;17.00;87.10;;;;;;5020109;28;19909;-71
2021/05/15 12:33:24;;;;;;;2.67;1.15;;;16.80;80.40;;;;;;5020185;28;20097;-71
2021/05/15 12:36:01;;;;;;;3.27;1.30;;;16.70;84.80;;;;;;5019776;28;20033;-71
2021/05/15 12:38:32;;;;;;;3.83;1.55;;;16.50;79.00;;;;;;5019792;28;20260;-71
2021/05/15 12:41:19;;;;;;;2.97;1.30;;;16.50;85.40;;;;;;5019681;28;20040;-71
2021/05/15 12:43:47;;;;;;;1.65;1.40;;;16.50;77.50;;;;;;5019962;28;20425;-71
2021/05/15 12:46:16;;;;;;;5.05;1.55;;;16.40;81.40;;;;;;5019609;28;20041;-71
2021/05/15 12:48:52;;;;;;;2.42;1.17;;;16.40;86.80;;;;;;5019599;28;20442;-71
2021/05/15 12:51:18;;;;;;;4.25;1.45;;;16.40;79.80;;;;;;5019822;28;20033;-71